Thursday, April 26, 2018, 5:40 AM EDT
Back to Local

KLCI, Laconia, Laconia Municipal Airport

Location: Laconia, NH, United States Lat: 43.567
Local Time: 5:40 AM EDT ( 9:40 GMT) Lon: -71.417
Time Zone: US/Eastern Elev: 544 ft

Show me the last for .
Show Decoded

2018-04-26 04:56 METAR KLCI 260856Z AUTO 08006KT 10SM OVC009 09/09 A2959 RMK AO2 RAB17E32 CIG
                 007V013 SLP040 P0000 60004 T00940089 58012 =
2018-04-26 03:56 METAR KLCI 260756Z AUTO 07006KT 10SM SCT009 OVC014 09/09 A2961 RMK AO2 RAB12E45
                 SLP047 P0004 T00940089 =
2018-04-26 03:52 METAR KLCI 260752Z AUTO 07007KT 10SM FEW007 OVC012 09/09 A2961 RMK AO2 RAB12E45
                 P0004 =
2018-04-26 02:56 METAR KLCI 260656Z AUTO 07006KT 10SM BKN008 OVC012 09/09 A2962 RMK AO2 RAE27 CIG
                 005V010 SLP052 P0000 T00940089 =
2018-04-26 02:12 METAR KLCI 260612Z AUTO 07006KT 10SM -RA FEW007 OVC014 09/09 A2964 RMK AO2 P0000
                 =
2018-04-26 01:56 METAR KLCI 260556Z AUTO 06008KT 10SM -RA OVC012 09/09 A2964 RMK AO2 RAB27 SLP057
                 P0002 60031 T00940089 10094 20089 58028 =
2018-04-26 01:34 METAR KLCI 260534Z AUTO 07008KT 6SM RA BR OVC010 09/09 A2966 RMK AO2 RAB27 CIG
                 005V012 P0001 =
2018-04-26 00:56 METAR KLCI 260456Z AUTO 06008KT 10SM OVC006 09/09 A2967 RMK AO2 RAE56 CIG
                 004V009 SLP067 P0004 T00940089 =
2018-04-26 00:44 METAR KLCI 260444Z AUTO 07007KT 7SM -RA OVC006 09/09 A2968 RMK AO2 CIG 004V010
                 P0004 =
2018-04-25 23:56 METAR KLCI 260356Z AUTO 06005KT 7SM -RA OVC004 09/09 A2970 RMK AO2 SLP077 P0007
                 T00940089 401330089 =
2018-04-25 22:56 METAR KLCI 260256Z AUTO 05005KT 4SM -RA BR OVC004 09/09 A2973 RMK AO2 SLP087
                 P0004 60018 T00940089 58018 =
2018-04-25 22:34 METAR KLCI 260234Z AUTO 04007KT 10SM -RA OVC004 09/09 A2973 RMK AO2 P0004 =
2018-04-25 21:56 METAR KLCI 260156Z AUTO 04006KT 6SM -RA BR OVC006 09/09 A2976 RMK AO2 SLP097
                 P0006 T00940089 =
2018-04-25 20:56 METAR KLCI 260056Z AUTO 06006KT 9SM -RA OVC004 09/09 A2978 RMK AO2 SLP104 P0008
                 T00940089 =
2018-04-25 20:50 METAR KLCI 260050Z AUTO 05006KT 8SM -RA OVC004 09/09 A2978 RMK AO2 P0008 =
2018-04-25 20:12 METAR KLCI 260012Z AUTO 05007KT 10SM -RA BKN006 OVC010 09/09 A2979 RMK AO2 CIG
                 004V008 P0001 =
2018-04-25 19:56 METAR KLCI 252356Z AUTO 05007KT 6SM -RA BR OVC004 09/09 A2980 RMK AO2 CIG
                 004V008 SLP111 P0005 60021 T00940089 10117 20094 56018 =
2018-04-25 18:56 METAR KLCI 252256Z AUTO 02007KT 5SM -RA BR OVC008 10/09 A2982 RMK AO2 CIG
                 005V010 SLP118 P0003 T01000094 =
2018-04-25 18:32 METAR KLCI 252232Z AUTO 06007KT 7SM RA OVC008 10/09 A2983 RMK AO2 CIG 005V012
                 P0001 =
2018-04-25 17:56 METAR KLCI 252156Z AUTO 04007KT 9SM -RA OVC010 11/09 A2985 RMK AO2 CIG 008V013
                 SLP128 P0004 T01060094 =
2018-04-25 17:27 METAR KLCI 252127Z AUTO 01007KT 8SM -RA OVC010 11/10 A2986 RMK AO2 CIG 008V013
                 P0002 =
2018-04-25 16:56 METAR KLCI 252056Z AUTO 03007KT 8SM -RA OVC008 11/10 A2988 RMK AO2 CIG 006V010
                 SLP137 P0006 60009 T01060100 58022 =
2018-04-25 15:56 METAR KLCI 251956Z AUTO 04008KT 6SM -RA BR OVC008 11/10 A2990 RMK AO2 CIG
                 005V012 SLP145 P0002 T01060100 =
2018-04-25 15:37 METAR KLCI 251937Z AUTO 02008KT 3SM -RA BR OVC008 11/10 A2991 RMK AO2 CIG
                 005V011 P0001 =
2018-04-25 15:20 METAR KLCI 251920Z AUTO 02005KT 1 3/4SM -RA BR OVC008 11/11 A2993 RMK AO2 VIS 1
                 1/2V2 1/2 CIG 006V012 P0001 =
2018-04-25 14:56 METAR KLCI 251856Z AUTO 03007KT 3SM -RA BR OVC008 11/10 A2994 RMK AO2 CIG
                 007V012 SLP157 P0001 T01060100 =
2018-04-25 14:46 METAR KLCI 251846Z AUTO 03008KT 2 1/2SM -RA BR BKN010 OVC013 11/10 A2994 RMK AO2
                 VIS 2V3 CIG 008V012 P0001 =
2018-04-25 13:56 METAR KLCI 251756Z AUTO 02003KT 5SM -RA BR FEW009 OVC014 11/10 A2998 RMK AO2
                 SLP170 P0001 60011 T01110100 10111 20089 58032 =
2018-04-25 13:08 METAR KLCI 251708Z AUTO 05007KT 6SM -RA BR OVC012 11/10 A3000 RMK AO2 P0001 =
2018-04-25 12:56 METAR KLCI 251656Z AUTO 05008KT 6SM -RA BR BKN009 OVC012 11/10 A3001 RMK AO2 CIG
                 006V012 SLP180 P0003 T01060100 =
2018-04-25 12:18 METAR KLCI 251618Z AUTO 03005KT 3SM -RA BR BKN009 OVC015 11/09 A3003 RMK AO2 CIG
                 007V012 P0002 =
2018-04-25 12:13 METAR KLCI 251613Z AUTO 02005KT 2 1/2SM -RA BR OVC011 10/09 A3004 RMK AO2 P0002
                 =
2018-04-25 11:56 METAR KLCI 251556Z AUTO 03007KT 3SM -RA BR OVC011 10/09 A3005 RMK AO2 SLP194
                 P0001 T01000089 =
2018-04-25 11:25 METAR KLCI 251525Z AUTO 04007KT 10SM -RA OVC013 09/08 A3006 RMK AO2 P0000 =
2018-04-25 10:56 METAR KLCI 251456Z AUTO 06008KT 10SM -RA OVC015 09/08 A3007 RMK AO2 SLP203 P0004
                 60006 T00940083 58018 =
2018-04-25 09:56 METAR KLCI 251356Z AUTO 04003KT 10SM -RA OVC017 09/07 A3010 RMK AO2 SLP212 P0002
                 T00890067 =
2018-04-25 08:56 METAR KLCI 251256Z AUTO 01003KT 10SM -RA BKN021 BKN037 OVC065 09/04 A3012 RMK
                 AO2 RAB23 SLP219 P0000 T00940044 =
2018-04-25 08:48 METAR KLCI 251248Z AUTO 02003KT 10SM -RA BKN023 OVC060 10/04 A3013 RMK AO2 RAB23
                 P0000 =
2018-04-25 06:56 METAR KLCI 251056Z AUTO 00000KT 10SM -RA BKN034 OVC065 09/03 A3014 RMK AO2 RAB36
                 SLP225 P0000 T00940028 =
2018-04-25 05:56 METAR KLCI 250956Z AUTO 00000KT 10SM FEW036 OVC100 11/01 A3013 RMK AO2 SLP221
                 T01060011 =

Support USWX by starting your Amazon purchase here.